Terminal Aerodrome Forecast
Issued by NWS Lake Charles, LA

Home | Current Version | Previous Version | Text Only | Print | Product List | Glossary On
Versions: 1 2 3 4 5 6 7 8 9 10 11 12 13
488
FTUS44 KLCH 031214 AAA
TAFARA
TAF AMD
KARA 031214Z 0312/0412 08010G22KT 6SM -RA BR OVC030
      TEMPO 0312/0316 4SM RA
     FM031800 11013G21KT 2SM -RA BR OVC025
     FM040000 11016KT 4SM BR OVC015=

USA.gov is the U.S. government's official web portal to all federal, state and local government web resources and services.